createdAt,value
2022-09-15T00:01:42.813Z,13.32
2022-09-15T00:04:11.587Z,13.31
2022-09-15T00:06:40.307Z,13.28
2022-09-15T00:09:09.226Z,13.26
2022-09-15T00:11:38.301Z,13.20
2022-09-15T00:14:09.038Z,13.17
2022-09-15T00:16:39.040Z,13.14
2022-09-15T00:19:07.971Z,13.12
2022-09-15T00:21:40.532Z,13.10
2022-09-15T00:24:10.692Z,13.11
2022-09-15T00:26:39.402Z,13.11
2022-09-15T00:29:07.968Z,13.12
2022-09-15T00:31:37.452Z,13.15
2022-09-15T00:34:07.552Z,13.18
2022-09-15T00:36:35.961Z,13.18
2022-09-15T00:39:04.762Z,13.19
2022-09-15T00:41:33.457Z,13.21
2022-09-15T00:44:27.275Z,13.22
2022-09-15T00:47:17.844Z,13.21
2022-09-15T00:49:49.990Z,13.23
2022-09-15T00:52:27.733Z,13.22
2022-09-15T00:55:12.315Z,13.17
2022-09-15T00:57:56.482Z,13.17
2022-09-15T01:00:28.511Z,13.17
2022-09-15T01:02:59.188Z,13.13
2022-09-15T01:05:43.568Z,13.11
2022-09-15T01:08:23.034Z,13.10
2022-09-15T01:10:52.502Z,13.10
2022-09-15T01:13:21.271Z,13.07
2022-09-15T01:16:14.278Z,13.07
2022-09-15T01:19:20.393Z,13.08
2022-09-15T01:21:55.625Z,13.05
2022-09-15T01:24:41.922Z,13.02
2022-09-15T01:27:40.561Z,12.99
2022-09-15T01:30:36.007Z,13.00
2022-09-15T01:33:20.548Z,13.00
2022-09-15T01:35:54.516Z,13.02
2022-09-15T01:38:55.744Z,12.99
2022-09-15T01:41:47.811Z,12.94
2022-09-15T01:44:33.890Z,12.94
2022-09-15T01:47:12.522Z,12.91
2022-09-15T01:49:53.285Z,12.87
2022-09-15T01:52:24.641Z,12.84
2022-09-15T01:54:57.884Z,12.82
2022-09-15T01:57:27.894Z,12.80
2022-09-15T01:59:57.037Z,12.75
2022-09-15T02:02:31.310Z,12.71
2022-09-15T02:05:08.791Z,12.67
2022-09-15T02:07:48.257Z,12.60
2022-09-15T02:10:34.577Z,12.59
2022-09-15T02:13:25.916Z,12.61
2022-09-15T02:16:00.239Z,12.61
2022-09-15T02:18:30.882Z,12.56
2022-09-15T02:21:10.507Z,12.54
2022-09-15T02:23:45.140Z,12.48
2022-09-15T02:26:18.353Z,12.45
2022-09-15T02:28:49.663Z,12.47
2022-09-15T02:31:21.416Z,12.43
2022-09-15T02:34:02.567Z,12.40
2022-09-15T02:36:31.622Z,12.39
2022-09-15T02:39:08.584Z,12.38
2022-09-15T02:41:37.553Z,12.39
2022-09-15T02:44:08.003Z,12.41
2022-09-15T02:46:37.340Z,12.38
2022-09-15T02:49:06.220Z,12.36
2022-09-15T02:51:34.693Z,12.33
2022-09-15T02:54:03.756Z,12.30
2022-09-15T02:56:32.255Z,12.27
2022-09-15T02:59:00.660Z,12.22
2022-09-15T03:01:35.148Z,12.20
2022-09-15T03:04:05.119Z,12.21
2022-09-15T03:06:37.081Z,12.22
2022-09-15T03:09:08.414Z,12.20
2022-09-15T03:11:37.505Z,12.20
2022-09-15T03:14:07.418Z,12.21
2022-09-15T03:16:36.378Z,12.20
2022-09-15T03:19:06.123Z,12.18
2022-09-15T03:21:36.284Z,12.15
2022-09-15T03:24:05.439Z,12.12
2022-09-15T03:26:33.999Z,12.08
2022-09-15T03:29:02.472Z,12.05
2022-09-15T03:31:30.867Z,12.02
2022-09-15T03:33:59.391Z,11.99
2022-09-15T03:36:27.861Z,11.99
2022-09-15T03:39:01.109Z,11.97
2022-09-15T03:41:29.690Z,11.95
2022-09-15T03:43:58.772Z,11.89
2022-09-15T03:46:27.826Z,11.87
2022-09-15T03:48:57.448Z,11.85
2022-09-15T03:51:25.819Z,11.83
2022-09-15T03:53:56.030Z,11.82
2022-09-15T03:56:30.719Z,11.79
2022-09-15T03:59:01.857Z,11.75
2022-09-15T04:01:32.087Z,11.70
2022-09-15T04:04:02.460Z,11.68
2022-09-15T04:06:31.790Z,11.66
2022-09-15T04:09:03.095Z,11.67
2022-09-15T04:11:32.229Z,11.70
2022-09-15T04:14:00.761Z,11.73
2022-09-15T04:16:29.452Z,11.74
2022-09-15T04:18:58.248Z,11.78
2022-09-15T04:21:27.732Z,11.79
2022-09-15T04:23:56.119Z,11.79
2022-09-15T04:26:34.023Z,11.81
2022-09-15T04:29:05.330Z,11.83
2022-09-15T04:31:34.730Z,11.88
2022-09-15T04:34:03.175Z,11.90
2022-09-15T04:36:31.873Z,11.94
2022-09-15T04:39:00.261Z,11.94
2022-09-15T04:41:29.623Z,11.95
2022-09-15T04:44:00.934Z,11.95
2022-09-15T04:46:29.949Z,11.97
2022-09-15T04:48:58.584Z,11.99
2022-09-15T04:51:27.700Z,12.00
2022-09-15T04:53:56.184Z,12.00
2022-09-15T04:56:26.919Z,12.03
2022-09-15T04:59:03.434Z,12.07
2022-09-15T05:01:36.443Z,12.08
2022-09-15T05:04:05.509Z,12.09
2022-09-15T05:06:36.390Z,12.09
2022-09-15T05:09:10.222Z,12.08
2022-09-15T05:11:40.891Z,12.09
2022-09-15T05:14:11.269Z,12.12
2022-09-15T05:16:40.588Z,12.15
2022-09-15T05:19:11.682Z,12.18
2022-09-15T05:21:40.330Z,12.22
2022-09-15T05:24:10.561Z,12.27
2022-09-15T05:26:39.012Z,12.34
2022-09-15T05:29:07.302Z,12.39
2022-09-15T05:31:35.815Z,12.47
2022-09-15T05:34:06.126Z,12.54
2022-09-15T05:36:34.596Z,12.63
2022-09-15T05:39:03.035Z,12.70
2022-09-15T05:41:33.281Z,12.76
2022-09-15T05:44:01.782Z,12.82
2022-09-15T05:46:30.349Z,12.88
2022-09-15T05:48:59.405Z,12.95
2022-09-15T05:51:28.310Z,13.01
2022-09-15T05:53:57.115Z,13.06
2022-09-15T05:56:25.470Z,13.09
2022-09-15T05:58:53.822Z,13.15
2022-09-15T06:01:26.083Z,13.21
2022-09-15T06:03:56.797Z,13.27
2022-09-15T06:06:26.492Z,13.36
2022-09-15T06:08:58.837Z,13.43
2022-09-15T06:11:31.163Z,13.50
2022-09-15T06:14:02.029Z,13.57
2022-09-15T06:16:35.662Z,13.68
2022-09-15T06:19:04.173Z,13.77
2022-09-15T06:21:34.286Z,13.88
2022-09-15T06:24:07.484Z,13.88
2022-09-15T06:26:36.627Z,13.92
2022-09-15T06:29:05.688Z,13.95
2022-09-15T06:31:36.369Z,13.99
2022-09-15T06:34:07.578Z,14.09
2022-09-15T06:36:38.240Z,14.20
2022-09-15T06:39:06.879Z,14.22
2022-09-15T06:42:00.778Z,14.24
2022-09-15T06:44:28.188Z,14.30
2022-09-15T06:46:56.591Z,14.39
2022-09-15T06:49:26.476Z,14.46
2022-09-15T06:51:54.977Z,14.53
2022-09-15T06:54:24.161Z,14.57
2022-09-15T06:56:53.604Z,14.64
2022-09-15T06:59:24.943Z,14.67
2022-09-15T07:02:09.892Z,14.74
2022-09-15T07:04:39.109Z,14.80
2022-09-15T07:07:07.358Z,14.92
2022-09-15T07:09:37.969Z,15.03
2022-09-15T07:12:10.447Z,15.11
2022-09-15T07:14:39.118Z,15.15
2022-09-15T07:17:07.472Z,15.21
2022-09-15T07:19:36.401Z,15.17
2022-09-15T07:22:04.700Z,15.18
2022-09-15T07:24:33.048Z,15.27
2022-09-15T07:27:01.413Z,15.42
2022-09-15T07:29:29.839Z,15.58
2022-09-15T07:31:58.306Z,15.67
2022-09-15T07:34:27.109Z,15.67
2022-09-15T07:36:55.338Z,15.65
2022-09-15T07:39:23.733Z,15.69
2022-09-15T07:41:52.088Z,15.69
2022-09-15T07:44:20.551Z,15.77
2022-09-15T07:46:48.877Z,15.89
2022-09-15T07:49:17.340Z,16.01
2022-09-15T07:51:45.658Z,16.16
2022-09-15T07:54:16.270Z,16.25
2022-09-15T07:56:47.481Z,16.33
2022-09-15T07:59:15.794Z,16.38
2022-09-15T08:01:44.697Z,16.53
2022-09-15T08:04:13.764Z,16.67
2022-09-15T08:06:42.485Z,16.79
2022-09-15T08:09:17.841Z,16.90
2022-09-15T08:11:46.134Z,16.85
2022-09-15T08:14:16.009Z,16.73
2022-09-15T08:16:45.263Z,16.63
2022-09-15T08:19:14.465Z,16.68
2022-09-15T08:21:42.871Z,16.83
2022-09-15T08:24:11.427Z,16.97
2022-09-15T08:26:42.578Z,17.10
2022-09-15T08:29:12.147Z,17.13
2022-09-15T08:31:41.214Z,17.09
2022-09-15T08:34:16.128Z,17.03
2022-09-15T08:36:45.453Z,17.14
2022-09-15T08:39:14.344Z,17.34
2022-09-15T08:41:50.242Z,17.57
2022-09-15T08:44:36.049Z,17.62
2022-09-15T08:47:32.299Z,17.47
2022-09-15T08:50:11.151Z,17.40
2022-09-15T08:52:43.285Z,17.37
2022-09-15T08:55:24.247Z,17.20
2022-09-15T08:57:54.489Z,17.13
2022-09-15T09:00:27.323Z,17.15
2022-09-15T09:03:40.635Z,17.14
2022-09-15T09:06:47.948Z,17.25
2022-09-15T09:09:34.957Z,17.44
2022-09-15T09:12:19.309Z,17.58
2022-09-15T09:15:06.478Z,17.69
2022-09-15T09:17:54.367Z,17.76
2022-09-15T09:20:42.631Z,17.91
2022-09-15T09:23:15.959Z,18.18
2022-09-15T09:25:45.433Z,18.38
2022-09-15T09:28:35.867Z,18.37
2022-09-15T09:31:08.697Z,18.08
2022-09-15T09:34:22.212Z,17.92
2022-09-15T09:37:00.937Z,17.93
2022-09-15T09:39:29.655Z,18.01
2022-09-15T09:41:59.619Z,18.07
2022-09-15T09:44:32.249Z,18.13
2022-09-15T09:47:02.195Z,18.09
2022-09-15T09:49:35.128Z,18.11
2022-09-15T09:52:05.148Z,18.26
2022-09-15T09:54:36.027Z,18.40
2022-09-15T09:57:12.969Z,18.68
2022-09-15T09:59:45.466Z,18.78
2022-09-15T10:02:26.541Z,18.96
2022-09-15T10:05:07.212Z,19.12
2022-09-15T10:07:44.150Z,19.23
2022-09-15T10:10:25.320Z,19.36
2022-09-15T10:12:59.833Z,19.45
2022-09-15T10:15:34.456Z,19.47
2022-09-15T10:18:03.702Z,19.47
2022-09-15T10:20:47.807Z,19.50
2022-09-15T10:23:19.249Z,19.40
2022-09-15T10:25:59.148Z,19.33
2022-09-15T10:28:29.162Z,19.40
2022-09-15T10:31:15.759Z,19.41
2022-09-15T10:33:48.219Z,19.32
2022-09-15T10:36:31.837Z,19.17
2022-09-15T10:39:00.513Z,19.06
2022-09-15T10:41:32.210Z,19.11
2022-09-15T10:44:19.405Z,19.14
2022-09-15T10:47:09.452Z,19.30
2022-09-15T10:49:41.587Z,19.57
2022-09-15T10:52:56.073Z,19.62
2022-09-15T10:55:51.096Z,19.60
2022-09-15T10:58:36.143Z,19.63
2022-09-15T11:01:19.678Z,19.53
2022-09-15T11:03:48.111Z,19.47
2022-09-15T11:06:43.524Z,19.34
2022-09-15T11:09:26.281Z,19.05
2022-09-15T11:12:36.600Z,18.86
2022-09-15T11:15:22.328Z,18.84
2022-09-15T11:17:50.660Z,18.80
2022-09-15T11:20:56.616Z,18.85
2022-09-15T11:23:33.582Z,18.79
2022-09-15T11:26:30.559Z,18.70
2022-09-15T11:29:11.285Z,18.52
2022-09-15T11:31:43.863Z,18.28
2022-09-15T11:34:15.688Z,18.11
2022-09-15T11:36:58.827Z,17.96
2022-09-15T11:39:35.873Z,17.75
2022-09-15T11:42:20.942Z,17.58
2022-09-15T11:44:51.282Z,17.46
2022-09-15T11:47:25.758Z,17.39
2022-09-15T11:50:19.236Z,17.32
2022-09-15T11:52:53.788Z,17.34
2022-09-15T11:55:38.726Z,17.37
2022-09-15T11:58:34.577Z,17.49
2022-09-15T12:01:02.946Z,17.59
2022-09-15T12:03:45.201Z,17.69
2022-09-15T12:06:20.802Z,17.81
2022-09-15T12:09:03.695Z,17.95
2022-09-15T12:11:41.781Z,18.15
2022-09-15T12:14:16.974Z,18.36
2022-09-15T12:16:46.906Z,18.54
2022-09-15T12:19:36.976Z,18.68
2022-09-15T12:22:15.040Z,18.71
2022-09-15T12:25:07.130Z,18.81
2022-09-15T12:27:35.540Z,18.87
2022-09-15T12:30:05.214Z,18.93
2022-09-15T12:32:35.352Z,19.00
2022-09-15T12:35:18.932Z,19.14
2022-09-15T12:37:56.588Z,19.13
2022-09-15T12:40:33.874Z,19.09
2022-09-15T12:43:04.194Z,19.08
2022-09-15T12:45:36.493Z,19.11
2022-09-15T12:48:13.939Z,19.18
2022-09-15T12:50:53.110Z,19.15
2022-09-15T12:53:47.611Z,19.15
2022-09-15T12:56:26.590Z,19.44
2022-09-15T12:58:56.491Z,19.61
2022-09-15T13:01:24.938Z,19.69
2022-09-15T13:03:55.581Z,19.78
2022-09-15T13:06:33.652Z,19.87
2022-09-15T13:09:06.069Z,19.96
2022-09-15T13:11:38.552Z,20.03
2022-09-15T13:14:19.231Z,20.07
2022-09-15T13:17:13.979Z,20.13
2022-09-15T13:19:49.658Z,20.21
2022-09-15T13:22:30.460Z,20.22
2022-09-15T13:25:07.733Z,20.26
2022-09-15T13:27:40.693Z,20.29
2022-09-15T13:30:21.755Z,20.21
2022-09-15T13:33:15.939Z,20.19
2022-09-15T13:36:08.222Z,20.26
2022-09-15T13:38:56.950Z,20.19
2022-09-15T13:42:02.457Z,19.89
2022-09-15T13:44:49.820Z,19.47
2022-09-15T13:47:34.076Z,19.14
2022-09-15T13:50:15.602Z,18.91
2022-09-15T13:53:02.753Z,18.66
2022-09-15T13:55:39.108Z,18.42
2022-09-15T14:01:07.461Z,18.28
2022-09-15T14:03:51.393Z,18.34
2022-09-15T14:06:33.927Z,18.38
2022-09-15T14:09:10.238Z,18.45
2022-09-15T14:11:41.246Z,18.50
2022-09-15T14:14:54.250Z,18.43
2022-09-15T14:17:27.437Z,18.36
2022-09-15T14:20:01.152Z,18.34
2022-09-15T14:22:33.637Z,18.24
2022-09-15T14:25:08.860Z,18.08
2022-09-15T14:27:45.062Z,17.90
2022-09-15T14:30:24.472Z,17.78
2022-09-15T14:33:00.487Z,17.70
2022-09-15T14:35:38.030Z,17.69
2022-09-15T16:27:37.021Z,17.34
2022-09-15T16:30:08.568Z,17.31
2022-09-15T16:32:37.121Z,17.31
2022-09-15T16:35:28.467Z,17.30
2022-09-15T16:37:57.331Z,17.27
2022-09-15T16:40:26.817Z,17.20
2022-09-15T16:42:55.407Z,17.15
2022-09-15T17:55:39.950Z,14.71
2022-09-15T17:58:08.430Z,14.64
2022-09-15T18:00:39.506Z,14.57
2022-09-15T18:03:15.973Z,14.51
2022-09-15T18:05:44.022Z,14.44
2022-09-15T18:08:12.084Z,14.37
2022-09-15T18:10:39.971Z,14.29
2022-09-15T18:13:16.743Z,14.21
2022-09-15T18:15:45.002Z,14.11
2022-09-15T18:18:17.626Z,14.04
2022-09-15T18:20:46.818Z,13.94
2022-09-15T18:23:17.681Z,13.86
2022-09-15T18:25:47.238Z,13.79
2022-09-15T18:28:16.635Z,13.73
2022-09-15T18:30:47.701Z,13.65
2022-09-15T18:33:24.329Z,13.58
2022-09-15T18:35:59.074Z,13.50
2022-09-15T18:38:27.984Z,13.44
2022-09-15T18:40:57.593Z,13.40
2022-09-15T18:43:27.971Z,13.35
2022-09-15T18:46:01.411Z,13.33
2022-09-15T18:48:32.937Z,13.32
2022-09-15T18:51:01.348Z,13.33
2022-09-15T18:53:29.436Z,13.33
2022-09-15T18:55:57.534Z,13.32
2022-09-15T18:58:25.555Z,13.32
2022-09-15T19:00:59.871Z,13.30
2022-09-15T19:03:28.325Z,13.28
2022-09-15T19:05:56.172Z,13.26
2022-09-15T19:08:24.528Z,13.25
2022-09-15T19:11:00.936Z,13.28
2022-09-15T19:13:29.212Z,13.34
2022-09-15T19:16:04.444Z,13.40
2022-09-15T19:18:34.038Z,13.44
2022-09-15T19:21:10.766Z,13.48
2022-09-15T19:23:39.657Z,13.51
2022-09-15T19:26:13.775Z,13.53
2022-09-15T19:28:44.441Z,13.53
2022-09-15T19:31:14.047Z,13.58
2022-09-15T19:33:42.196Z,13.62
2022-09-15T19:36:27.967Z,13.66
2022-09-15T19:39:03.262Z,13.69
2022-09-15T19:41:31.600Z,13.69
2022-09-15T19:44:02.276Z,13.72
2022-09-15T19:46:31.269Z,13.74
2022-09-15T19:48:59.325Z,13.74
2022-09-15T19:52:59.497Z,13.68
2022-09-15T19:55:28.920Z,13.63
2022-09-15T19:57:56.802Z,13.63
2022-09-15T20:00:24.722Z,13.61
2022-09-15T20:02:52.539Z,13.60
2022-09-15T20:05:32.738Z,13.58
2022-09-15T20:08:02.113Z,13.57
2022-09-15T20:10:30.097Z,13.57
2022-09-15T20:12:58.109Z,13.58
2022-09-15T20:15:26.174Z,13.59
2022-09-15T20:17:54.372Z,13.60
2022-09-15T20:20:22.299Z,13.59
2022-09-15T20:22:50.276Z,13.62
2022-09-15T20:25:18.183Z,13.61
2022-09-15T20:27:47.769Z,13.58
2022-09-15T20:30:22.040Z,13.56
2022-09-15T20:32:49.929Z,13.52
2022-09-15T20:35:17.821Z,13.47
2022-09-15T20:37:45.876Z,13.41
2022-09-15T20:40:13.861Z,13.36
2022-09-15T20:42:41.751Z,13.27
2022-09-15T20:45:10.529Z,13.22
2022-09-15T20:47:38.494Z,13.17
2022-09-15T20:50:06.685Z,13.11
2022-09-15T20:52:38.213Z,13.03
2022-09-15T20:55:06.897Z,12.96
2022-09-15T20:57:47.792Z,12.93
2022-09-15T21:00:15.658Z,12.87
2022-09-15T21:02:44.089Z,12.83
2022-09-15T21:05:11.920Z,12.78
2022-09-15T21:07:40.421Z,12.74
2022-09-15T21:10:09.885Z,12.72
2022-09-15T21:12:37.766Z,12.68
2022-09-15T21:15:06.078Z,12.68
2022-09-15T21:17:34.065Z,12.69
2022-09-15T21:20:02.338Z,12.70
2022-09-15T21:22:30.188Z,12.70
2022-09-15T21:24:58.273Z,12.72
2022-09-15T21:27:30.139Z,12.73
2022-09-15T21:29:58.093Z,12.73
2022-09-15T21:32:25.936Z,12.79
2022-09-15T21:34:56.094Z,12.79
2022-09-15T21:37:27.246Z,12.83
2022-09-15T21:39:55.170Z,12.85
2022-09-15T21:42:23.179Z,12.87
2022-09-15T21:44:52.257Z,12.86
2022-09-15T21:47:20.087Z,12.84
2022-09-15T21:49:47.924Z,12.81
2022-09-15T21:52:15.762Z,12.76
2022-09-15T21:54:43.846Z,12.73
2022-09-15T21:57:11.853Z,12.67
2022-09-15T21:59:40.406Z,12.58
2022-09-15T22:02:08.319Z,12.53
2022-09-15T22:04:36.276Z,12.47
2022-09-15T22:07:06.190Z,12.41
2022-09-15T22:09:34.074Z,12.36
2022-09-15T22:12:02.214Z,12.30
2022-09-15T22:14:31.185Z,12.25
2022-09-15T22:16:59.254Z,12.22
2022-09-15T22:19:27.175Z,12.17
2022-09-15T22:21:55.092Z,12.12
2022-09-15T22:24:23.264Z,12.08
2022-09-15T22:26:51.057Z,12.03
2022-09-15T22:29:19.086Z,12.01
2022-09-15T22:31:46.964Z,11.96
2022-09-15T22:34:15.496Z,11.93
2022-09-15T22:36:43.449Z,11.89
2022-09-15T22:39:12.422Z,11.86
2022-09-15T22:41:40.385Z,11.82
2022-09-15T22:44:18.090Z,11.80
2022-09-15T22:46:46.330Z,11.79
2022-09-15T22:49:14.691Z,11.79
2022-09-15T22:51:42.995Z,11.78
2022-09-15T22:54:10.822Z,11.78
2022-09-15T22:56:38.615Z,11.78
2022-09-15T22:59:06.522Z,11.77
2022-09-15T23:01:34.491Z,11.74
2022-09-15T23:04:03.378Z,11.73
2022-09-15T23:06:33.864Z,11.71
2022-09-15T23:09:06.187Z,11.72
2022-09-15T23:11:35.267Z,11.71
2022-09-15T23:14:03.208Z,11.68
2022-09-15T23:16:31.675Z,11.68
2022-09-15T23:19:00.207Z,11.66
2022-09-15T23:21:28.678Z,11.62
2022-09-15T23:23:56.923Z,11.59
2022-09-15T23:26:25.962Z,11.57
2022-09-15T23:28:54.775Z,11.54
2022-09-15T23:31:23.241Z,11.49
2022-09-15T23:33:51.144Z,11.46
2022-09-15T23:36:19.741Z,11.41
2022-09-15T23:38:48.680Z,11.36
2022-09-15T23:41:17.922Z,11.31
2022-09-15T23:43:46.472Z,11.27
2022-09-15T23:46:16.269Z,11.23
2022-09-15T23:48:44.444Z,11.17
2022-09-15T23:51:12.369Z,11.16
2022-09-15T23:53:40.206Z,11.13
2022-09-15T23:56:08.495Z,11.09
2022-09-15T23:58:36.467Z,11.06
